AAL628 KSNA-KPHX
Flight info
| Callsign | AAL628 |
|---|---|
| Flight time | 0h 56m |
| Altitude | 33000 |
| Route | PIGGN3 CNERY BLH HYDRR1 |
| Aircraft | B38M/M-SDE1FGHILORVWXY/HB1 |
Departure
| Time | 2026-05-05 03:54 |
|---|---|
| Airport | John Wayne Orange County International Airport (KSNA) |
Arrival
| Time | 2026-05-05 04:50 |
|---|---|
| Airport | Phoenix Sky Harbor International Airport (KPHX) |
| Time | Latitude | Longitude | Altitude | Speed | Heading |
|---|---|---|---|---|---|
| 2026-05-05 03:27 | 33.68074 | -117.86153 | 53 ft | 0 kts | 137° |
| 2026-05-05 03:44 | 33.68080 | -117.86159 | 51 ft | 3 kts | 135° |
| 2026-05-05 03:44 | 33.68093 | -117.86177 | 53 ft | 3 kts | 132° |
| 2026-05-05 03:44 | 33.68107 | -117.86193 | 51 ft | 3 kts | 145° |
| 2026-05-05 03:44 | 33.68119 | -117.86200 | 53 ft | 2 kts | 199° |
| 2026-05-05 03:45 | 33.68123 | -117.86198 | 50 ft | 1 kts | 208° |
| 2026-05-05 03:48 | 33.68112 | -117.86205 | 53 ft | 3 kts | 208° |
| 2026-05-05 03:48 | 33.68083 | -117.86224 | 49 ft | 6 kts | 209° |
| 2026-05-05 03:48 | 33.68056 | -117.86275 | 50 ft | 8 kts | 273° |
| 2026-05-05 03:48 | 33.68082 | -117.86344 | 53 ft | 10 kts | 297° |
| 2026-05-05 03:49 | 33.68113 | -117.86416 | 51 ft | 5 kts | 298° |
| 2026-05-05 03:49 | 33.68116 | -117.86423 | 52 ft | 0 kts | 298° |
| 2026-05-05 03:52 | 33.68118 | -117.86426 | 54 ft | 2 kts | 298° |
| 2026-05-05 03:52 | 33.68129 | -117.86452 | 54 ft | 5 kts | 299° |
| 2026-05-05 03:53 | 33.68148 | -117.86500 | 52 ft | 6 kts | 280° |
| 2026-05-05 03:53 | 33.68139 | -117.86519 | 51 ft | 0 kts | 215° |
| 2026-05-05 03:53 | 33.68032 | -117.86591 | 49 ft | 55 kts | 208° |
| 2026-05-05 03:53 | 33.67446 | -117.86967 | 54 ft | 134 kts | 208° |
| 2026-05-05 03:54 | 33.66585 | -117.87524 | 320 ft | 167 kts | 208° |
| 2026-05-05 03:54 | 33.66120 | -117.87808 | 571 ft | 178 kts | 207° |
| 2026-05-05 03:54 | 33.65076 | -117.88439 | 1011 ft | 207 kts | 207° |
| 2026-05-05 03:54 | 33.63692 | -117.89171 | 1842 ft | 228 kts | 200° |
| 2026-05-05 03:55 | 33.62115 | -117.89505 | 2002 ft | 237 kts | 182° |
| 2026-05-05 03:55 | 33.60395 | -117.89475 | 2328 ft | 251 kts | 184° |
| 2026-05-05 03:55 | 33.58631 | -117.89646 | 3572 ft | 259 kts | 188° |
| 2026-05-05 03:55 | 33.56813 | -117.89719 | 4890 ft | 265 kts | 174° |
| 2026-05-05 03:56 | 33.55077 | -117.88970 | 6135 ft | 270 kts | 152° |
| 2026-05-05 03:56 | 33.53430 | -117.87806 | 7189 ft | 281 kts | 150° |
| 2026-05-05 03:56 | 33.51752 | -117.86531 | 8187 ft | 289 kts | 149° |
| 2026-05-05 03:56 | 33.50175 | -117.85054 | 9395 ft | 291 kts | 132° |
| 2026-05-05 03:57 | 33.49120 | -117.82957 | 10392 ft | 299 kts | 115° |
| 2026-05-05 03:57 | 33.48324 | -117.80540 | 11000 ft | 320 kts | 112° |
| 2026-05-05 03:57 | 33.47579 | -117.77972 | 11860 ft | 332 kts | 107° |
| 2026-05-05 03:57 | 33.47281 | -117.75188 | 12500 ft | 349 kts | 90° |
| 2026-05-05 03:58 | 33.47527 | -117.72298 | 12879 ft | 345 kts | 82° |
| 2026-05-05 03:58 | 33.48145 | -117.69501 | 13751 ft | 355 kts | 65° |
| 2026-05-05 03:58 | 33.49441 | -117.66968 | 14630 ft | 359 kts | 57° |
| 2026-05-05 03:58 | 33.50716 | -117.64363 | 15441 ft | 366 kts | 60° |
| 2026-05-05 03:59 | 33.51245 | -117.63258 | 15792 ft | 368 kts | 60° |
| 2026-05-05 03:59 | 33.52513 | -117.60597 | 16593 ft | 375 kts | 61° |
| 2026-05-05 03:59 | 33.53807 | -117.57863 | 17434 ft | 378 kts | 61° |
| 2026-05-05 03:59 | 33.54999 | -117.55354 | 18118 ft | 383 kts | 60° |
| 2026-05-05 04:00 | 33.56101 | -117.53039 | 18673 ft | 387 kts | 60° |
| 2026-05-05 04:00 | 33.56722 | -117.51735 | 19025 ft | 388 kts | 61° |
| 2026-05-05 04:00 | 33.56725 | -117.51727 | 19027 ft | 388 kts | 61° |
| 2026-05-05 04:00 | 33.57819 | -117.49085 | 19559 ft | 395 kts | 73° |
| 2026-05-05 04:01 | 33.58192 | -117.47272 | 19911 ft | 395 kts | 85° |
| 2026-05-05 04:01 | 33.58388 | -117.43993 | 20606 ft | 396 kts | 91° |
| 2026-05-05 04:01 | 33.58504 | -117.40657 | 21086 ft | 405 kts | 91° |
| 2026-05-05 04:01 | 33.58607 | -117.37265 | 21697 ft | 408 kts | 92° |
| 2026-05-05 04:02 | 33.58695 | -117.33856 | 22263 ft | 414 kts | 93° |
| 2026-05-05 04:02 | 33.58779 | -117.30425 | 22798 ft | 419 kts | 93° |
| 2026-05-05 04:02 | 33.58864 | -117.26920 | 23350 ft | 423 kts | 93° |
| 2026-05-05 04:02 | 33.58950 | -117.23353 | 23922 ft | 429 kts | 94° |
| 2026-05-05 04:03 | 33.59032 | -117.19748 | 24427 ft | 436 kts | 94° |
| 2026-05-05 04:03 | 33.59119 | -117.16095 | 24986 ft | 439 kts | 95° |
| 2026-05-05 04:03 | 33.59204 | -117.12408 | 25444 ft | 445 kts | 95° |
| 2026-05-05 04:03 | 33.59293 | -117.08679 | 25945 ft | 448 kts | 96° |
| 2026-05-05 04:04 | 33.59374 | -117.04936 | 26401 ft | 452 kts | 96° |
| 2026-05-05 04:04 | 33.59457 | -117.01139 | 26803 ft | 457 kts | 97° |
| 2026-05-05 04:04 | 33.59539 | -116.97329 | 27306 ft | 459 kts | 97° |
| 2026-05-05 04:04 | 33.59615 | -116.93462 | 27768 ft | 468 kts | 98° |
| 2026-05-05 04:05 | 33.59704 | -116.89587 | 28221 ft | 464 kts | 98° |
| 2026-05-05 04:05 | 33.59782 | -116.85692 | 28335 ft | 471 kts | 97° |
| 2026-05-05 04:05 | 33.59876 | -116.81789 | 28928 ft | 466 kts | 100° |
| 2026-05-05 04:05 | 33.59926 | -116.77856 | 29148 ft | 476 kts | 99° |
| 2026-05-05 04:06 | 33.60023 | -116.73887 | 29615 ft | 478 kts | 99° |
| 2026-05-05 04:06 | 33.60108 | -116.69891 | 30027 ft | 480 kts | 99° |
| 2026-05-05 04:06 | 33.60186 | -116.65891 | 30477 ft | 481 kts | 101° |
| 2026-05-05 04:06 | 33.60315 | -116.61819 | 30763 ft | 488 kts | 101° |
| 2026-05-05 04:07 | 33.60345 | -116.59140 | 31084 ft | 483 kts | 101° |
| 2026-05-05 04:07 | 33.60411 | -116.53777 | 31367 ft | 486 kts | 101° |
| 2026-05-05 04:07 | 33.60498 | -116.46929 | 31712 ft | 497 kts | 99° |
| 2026-05-05 04:08 | 33.60595 | -116.42794 | 32047 ft | 498 kts | 100° |
| 2026-05-05 04:08 | 33.60673 | -116.38633 | 32292 ft | 500 kts | 101° |
| 2026-05-05 04:08 | 33.60742 | -116.34455 | 32583 ft | 501 kts | 101° |
| 2026-05-05 04:08 | 33.60811 | -116.30277 | 32893 ft | 501 kts | 101° |
| 2026-05-05 04:09 | 33.60945 | -116.21924 | 32892 ft | 499 kts | 101° |
| 2026-05-05 04:09 | 33.61068 | -116.13591 | 32913 ft | 499 kts | 101° |
| 2026-05-05 04:10 | 33.61191 | -116.05240 | 32885 ft | 501 kts | 101° |
| 2026-05-05 04:10 | 33.61308 | -115.96896 | 32886 ft | 500 kts | 101° |
| 2026-05-05 04:11 | 33.61414 | -115.88564 | 32948 ft | 500 kts | 101° |
| 2026-05-05 04:11 | 33.61523 | -115.80246 | 32868 ft | 501 kts | 101° |
| 2026-05-05 04:12 | 33.61621 | -115.71948 | 32934 ft | 501 kts | 101° |
| 2026-05-05 04:12 | 33.61717 | -115.63567 | 32924 ft | 502 kts | 101° |
| 2026-05-05 04:13 | 33.61735 | -115.55219 | 32916 ft | 497 kts | 104° |
| 2026-05-05 04:13 | 33.61505 | -115.46924 | 32952 ft | 497 kts | 104° |
| 2026-05-05 04:14 | 33.61302 | -115.38599 | 32899 ft | 499 kts | 104° |
| 2026-05-05 04:14 | 33.61092 | -115.30277 | 32926 ft | 497 kts | 104° |
| 2026-05-05 04:15 | 33.60883 | -115.22030 | 32922 ft | 498 kts | 104° |
| 2026-05-05 04:15 | 33.60664 | -115.13657 | 32917 ft | 501 kts | 104° |
| 2026-05-05 04:16 | 33.60437 | -115.05294 | 32868 ft | 501 kts | 104° |
| 2026-05-05 04:16 | 33.60203 | -114.96917 | 32904 ft | 504 kts | 104° |
| 2026-05-05 04:17 | 33.59968 | -114.88530 | 32941 ft | 504 kts | 104° |
| 2026-05-05 04:17 | 33.59727 | -114.80170 | 32819 ft | 504 kts | 103° |
| 2026-05-05 04:18 | 33.59516 | -114.76001 | 32883 ft | 492 kts | 112° |
| 2026-05-05 04:18 | 33.58814 | -114.72048 | 32918 ft | 483 kts | 116° |
| 2026-05-05 04:18 | 33.57299 | -114.64199 | 32907 ft | 483 kts | 117° |
| 2026-05-05 04:19 | 33.55766 | -114.56348 | 32893 ft | 483 kts | 116° |
| 2026-05-05 04:19 | 33.54233 | -114.48510 | 32755 ft | 490 kts | 116° |
| 2026-05-05 04:20 | 33.53443 | -114.44474 | 31563 ft | 503 kts | 115° |
| 2026-05-05 04:20 | 33.52628 | -114.40325 | 30392 ft | 515 kts | 114° |
| 2026-05-05 04:20 | 33.51811 | -114.36143 | 29724 ft | 510 kts | 113° |
| 2026-05-05 04:20 | 33.51010 | -114.32061 | 29417 ft | 498 kts | 113° |
| 2026-05-05 04:21 | 33.50212 | -114.28036 | 28644 ft | 499 kts | 113° |
| 2026-05-05 04:21 | 33.49404 | -114.23961 | 27672 ft | 503 kts | 112° |
| 2026-05-05 04:21 | 33.48610 | -114.19941 | 26953 ft | 502 kts | 112° |
| 2026-05-05 04:21 | 33.47807 | -114.15889 | 26194 ft | 498 kts | 112° |
| 2026-05-05 04:22 | 33.47006 | -114.11859 | 25358 ft | 496 kts | 111° |
| 2026-05-05 04:22 | 33.46180 | -114.07891 | 24946 ft | 481 kts | 116° |
| 2026-05-05 04:22 | 33.44886 | -114.04335 | 24692 ft | 453 kts | 129° |
| 2026-05-05 04:22 | 33.43103 | -114.01407 | 24550 ft | 418 kts | 142° |
| 2026-05-05 04:23 | 33.41034 | -113.99142 | 24391 ft | 393 kts | 149° |
| 2026-05-05 04:23 | 33.38930 | -113.97063 | 24314 ft | 390 kts | 150° |
| 2026-05-05 04:23 | 33.36832 | -113.95025 | 24139 ft | 385 kts | 150° |
| 2026-05-05 04:23 | 33.34734 | -113.93001 | 23495 ft | 386 kts | 150° |
| 2026-05-05 04:24 | 33.32669 | -113.91022 | 23061 ft | 383 kts | 150° |
| 2026-05-05 04:24 | 33.30566 | -113.89018 | 22534 ft | 382 kts | 150° |
| 2026-05-05 04:24 | 33.28485 | -113.87048 | 22001 ft | 381 kts | 150° |
| 2026-05-05 04:25 | 33.24370 | -113.83178 | 21069 ft | 377 kts | 150° |
| 2026-05-05 04:25 | 33.22308 | -113.81256 | 20574 ft | 376 kts | 150° |
| 2026-05-05 04:25 | 33.20323 | -113.79226 | 20093 ft | 381 kts | 141° |
| 2026-05-05 04:25 | 33.18751 | -113.76624 | 19627 ft | 391 kts | 125° |
| 2026-05-05 04:26 | 33.17767 | -113.73554 | 19185 ft | 401 kts | 109° |
| 2026-05-05 04:26 | 33.17350 | -113.70229 | 18638 ft | 408 kts | 101° |
| 2026-05-05 04:26 | 33.17099 | -113.66867 | 18200 ft | 405 kts | 100° |
| 2026-05-05 04:26 | 33.16849 | -113.63529 | 17735 ft | 403 kts | 100° |
| 2026-05-05 04:27 | 33.16593 | -113.60221 | 17311 ft | 400 kts | 100° |
| 2026-05-05 04:27 | 33.16337 | -113.56931 | 16934 ft | 396 kts | 100° |
| 2026-05-05 04:27 | 33.16089 | -113.53681 | 16661 ft | 392 kts | 100° |
| 2026-05-05 04:27 | 33.15835 | -113.50440 | 16392 ft | 392 kts | 100° |
| 2026-05-05 04:28 | 33.15689 | -113.47197 | 16114 ft | 393 kts | 92° |
| 2026-05-05 04:28 | 33.15824 | -113.43953 | 15807 ft | 390 kts | 90° |
| 2026-05-05 04:28 | 33.15995 | -113.40723 | 15538 ft | 389 kts | 90° |
| 2026-05-05 04:28 | 33.16170 | -113.37506 | 15313 ft | 386 kts | 90° |
| 2026-05-05 04:29 | 33.16336 | -113.34317 | 15028 ft | 383 kts | 90° |
| 2026-05-05 04:29 | 33.16494 | -113.31336 | 14812 ft | 381 kts | 90° |
| 2026-05-05 04:29 | 33.16526 | -113.30706 | 14749 ft | 381 kts | 90° |
| 2026-05-05 04:30 | 33.16646 | -113.28371 | 14522 ft | 379 kts | 90° |
| 2026-05-05 04:30 | 33.16808 | -113.25240 | 14277 ft | 375 kts | 90° |
| 2026-05-05 04:30 | 33.16965 | -113.22138 | 14036 ft | 372 kts | 90° |
| 2026-05-05 04:30 | 33.17117 | -113.19064 | 13778 ft | 369 kts | 90° |
| 2026-05-05 04:31 | 33.17266 | -113.16045 | 13619 ft | 360 kts | 90° |
| 2026-05-05 04:31 | 33.17412 | -113.13078 | 13422 ft | 355 kts | 90° |
| 2026-05-05 04:31 | 33.17554 | -113.10162 | 13203 ft | 349 kts | 90° |
| 2026-05-05 04:31 | 33.17690 | -113.07318 | 13015 ft | 346 kts | 90° |
| 2026-05-05 04:32 | 33.17831 | -113.04408 | 12854 ft | 345 kts | 90° |
| 2026-05-05 04:32 | 33.17969 | -113.01570 | 12616 ft | 347 kts | 89° |
| 2026-05-05 04:32 | 33.18101 | -112.98718 | 12355 ft | 343 kts | 90° |
| 2026-05-05 04:32 | 33.18234 | -112.95885 | 12183 ft | 341 kts | 90° |
| 2026-05-05 04:33 | 33.18364 | -112.93073 | 12024 ft | 339 kts | 90° |
| 2026-05-05 04:33 | 33.18491 | -112.90269 | 11866 ft | 336 kts | 90° |
| 2026-05-05 04:33 | 33.18612 | -112.87491 | 11678 ft | 336 kts | 90° |
| 2026-05-05 04:33 | 33.18734 | -112.84713 | 11468 ft | 333 kts | 90° |
| 2026-05-05 04:34 | 33.18853 | -112.81948 | 11294 ft | 332 kts | 90° |
| 2026-05-05 04:34 | 33.18974 | -112.79202 | 11136 ft | 332 kts | 90° |
| 2026-05-05 04:34 | 33.19094 | -112.76453 | 10950 ft | 330 kts | 90° |
| 2026-05-05 04:34 | 33.19210 | -112.73706 | 10795 ft | 330 kts | 90° |
| 2026-05-05 04:35 | 33.19325 | -112.71014 | 10670 ft | 329 kts | 90° |
| 2026-05-05 04:35 | 33.19440 | -112.68303 | 10514 ft | 328 kts | 90° |
| 2026-05-05 04:35 | 33.19551 | -112.65621 | 10304 ft | 325 kts | 90° |
| 2026-05-05 04:35 | 33.19660 | -112.62925 | 10202 ft | 325 kts | 90° |
| 2026-05-05 04:36 | 33.19772 | -112.60233 | 10040 ft | 325 kts | 89° |
| 2026-05-05 04:36 | 33.19880 | -112.57536 | 9883 ft | 325 kts | 90° |
| 2026-05-05 04:36 | 33.19988 | -112.54847 | 9735 ft | 324 kts | 89° |
| 2026-05-05 04:36 | 33.20092 | -112.52169 | 9576 ft | 322 kts | 90° |
| 2026-05-05 04:37 | 33.20195 | -112.49496 | 9418 ft | 322 kts | 90° |
| 2026-05-05 04:37 | 33.20293 | -112.46825 | 9212 ft | 321 kts | 90° |
| 2026-05-05 04:37 | 33.20392 | -112.44176 | 9039 ft | 319 kts | 90° |
| 2026-05-05 04:37 | 33.20485 | -112.41526 | 8869 ft | 319 kts | 90° |
| 2026-05-05 04:38 | 33.20593 | -112.38888 | 8685 ft | 318 kts | 85° |
| 2026-05-05 04:38 | 33.21307 | -112.36424 | 8467 ft | 318 kts | 58° |
| 2026-05-05 04:38 | 33.22524 | -112.34211 | 8305 ft | 317 kts | 59° |
| 2026-05-05 04:38 | 33.23671 | -112.31955 | 8124 ft | 318 kts | 60° |
| 2026-05-05 04:39 | 33.24789 | -112.29720 | 7949 ft | 316 kts | 60° |
| 2026-05-05 04:39 | 33.25868 | -112.27534 | 7768 ft | 315 kts | 60° |
| 2026-05-05 04:39 | 33.26951 | -112.25320 | 7512 ft | 312 kts | 61° |
| 2026-05-05 04:39 | 33.28049 | -112.23076 | 7369 ft | 311 kts | 60° |
| 2026-05-05 04:40 | 33.29140 | -112.20841 | 7214 ft | 312 kts | 60° |
| 2026-05-05 04:40 | 33.30225 | -112.18615 | 7034 ft | 313 kts | 60° |
| 2026-05-05 04:40 | 33.30962 | -112.17101 | 6929 ft | 311 kts | 60° |
| 2026-05-05 04:40 | 33.32166 | -112.14640 | 6717 ft | 309 kts | 59° |
| 2026-05-05 04:41 | 33.33560 | -112.12721 | 6534 ft | 308 kts | 42° |
| 2026-05-05 04:41 | 33.34924 | -112.10767 | 6308 ft | 304 kts | 64° |
| 2026-05-05 04:41 | 33.35387 | -112.08353 | 6122 ft | 298 kts | 95° |
| 2026-05-05 04:41 | 33.35068 | -112.05916 | 6025 ft | 294 kts | 99° |
| 2026-05-05 04:42 | 33.34888 | -112.03509 | 5884 ft | 286 kts | 95° |
| 2026-05-05 04:42 | 33.34773 | -112.01159 | 5763 ft | 281 kts | 94° |
| 2026-05-05 04:42 | 33.34694 | -111.98818 | 5642 ft | 281 kts | 94° |
| 2026-05-05 04:42 | 33.34637 | -111.96486 | 5547 ft | 281 kts | 92° |
| 2026-05-05 04:43 | 33.34589 | -111.94141 | 5400 ft | 282 kts | 92° |
| 2026-05-05 04:43 | 33.34601 | -111.91815 | 5230 ft | 278 kts | 90° |
| 2026-05-05 04:43 | 33.34646 | -111.89537 | 5096 ft | 270 kts | 89° |
| 2026-05-05 04:43 | 33.34696 | -111.87333 | 5068 ft | 259 kts | 90° |
| 2026-05-05 04:44 | 33.34738 | -111.85226 | 5015 ft | 247 kts | 90° |
| 2026-05-05 04:44 | 33.34785 | -111.83197 | 4742 ft | 245 kts | 89° |
| 2026-05-05 04:44 | 33.34850 | -111.81167 | 4410 ft | 244 kts | 84° |
| 2026-05-05 04:44 | 33.35375 | -111.79251 | 4087 ft | 244 kts | 58° |
| 2026-05-05 04:45 | 33.36497 | -111.77808 | 4011 ft | 242 kts | 33° |
| 2026-05-05 04:45 | 33.38065 | -111.76999 | 4031 ft | 244 kts | 9° |
| 2026-05-05 04:45 | 33.39730 | -111.76849 | 4005 ft | 243 kts | 359° |
| 2026-05-05 04:45 | 33.41425 | -111.76901 | 4006 ft | 244 kts | 349° |
| 2026-05-05 04:46 | 33.42997 | -111.77586 | 3932 ft | 239 kts | 325° |
| 2026-05-05 04:46 | 33.44162 | -111.78959 | 3611 ft | 237 kts | 299° |
| 2026-05-05 04:46 | 33.44627 | -111.80776 | 3351 ft | 226 kts | 270° |
| 2026-05-05 04:46 | 33.44340 | -111.82541 | 3247 ft | 207 kts | 249° |
| 2026-05-05 04:47 | 33.44053 | -111.84163 | 3180 ft | 194 kts | 265° |
| 2026-05-05 04:47 | 33.44046 | -111.85709 | 3071 ft | 178 kts | 269° |
| 2026-05-05 04:47 | 33.44058 | -111.87127 | 3029 ft | 166 kts | 268° |
| 2026-05-05 04:47 | 33.44070 | -111.88480 | 2851 ft | 159 kts | 269° |
| 2026-05-05 04:48 | 33.44074 | -111.89791 | 2674 ft | 156 kts | 268° |
| 2026-05-05 04:48 | 33.44064 | -111.91075 | 2489 ft | 153 kts | 269° |
| 2026-05-05 04:48 | 33.44069 | -111.92324 | 2334 ft | 147 kts | 271° |
| 2026-05-05 04:48 | 33.44071 | -111.93527 | 2086 ft | 142 kts | 269° |
| 2026-05-05 04:49 | 33.44070 | -111.94701 | 1905 ft | 140 kts | 270° |
| 2026-05-05 04:49 | 33.44075 | -111.95857 | 1721 ft | 137 kts | 271° |
| 2026-05-05 04:49 | 33.44078 | -111.96988 | 1527 ft | 139 kts | 271° |
| 2026-05-05 04:49 | 33.44079 | -111.98180 | 1355 ft | 145 kts | 270° |
| 2026-05-05 04:50 | 33.44083 | -111.99374 | 1170 ft | 141 kts | 270° |
| 2026-05-05 04:50 | 33.44083 | -112.00418 | 1133 ft | 96 kts | 270° |
| 2026-05-05 04:50 | 33.44085 | -112.00955 | 1133 ft | 40 kts | 269° |
| 2026-05-05 04:50 | 33.44085 | -112.01100 | 1135 ft | 20 kts | 269° |
| 2026-05-05 04:51 | 33.44082 | -112.01276 | 1135 ft | 22 kts | 259° |
| 2026-05-05 04:51 | 33.44020 | -112.01358 | 1138 ft | 12 kts | 186° |
| 2026-05-05 04:51 | 33.43974 | -112.01281 | 1133 ft | 14 kts | 91° |
| 2026-05-05 04:51 | 33.43975 | -112.01155 | 1135 ft | 17 kts | 90° |
| 2026-05-05 04:52 | 33.43974 | -112.00992 | 1134 ft | 23 kts | 90° |
| 2026-05-05 04:52 | 33.43974 | -112.00819 | 1138 ft | 14 kts | 89° |
| 2026-05-05 04:52 | 33.43974 | -112.00709 | 1135 ft | 13 kts | 90° |
| 2026-05-05 04:52 | 33.43974 | -112.00580 | 1133 ft | 19 kts | 90° |
| 2026-05-05 04:53 | 33.43974 | -112.00373 | 1133 ft | 30 kts | 90° |
| 2026-05-05 04:53 | 33.43973 | -112.00159 | 1136 ft | 24 kts | 90° |
| 2026-05-05 04:53 | 33.43919 | -112.00069 | 1138 ft | 14 kts | 152° |
| 2026-05-05 04:53 | 33.43870 | -112.00027 | 1133 ft | 5 kts | 152° |
| 2026-05-05 04:54 | 33.43833 | -112.00006 | 1138 ft | 5 kts | 146° |
| 2026-05-05 04:54 | 33.43820 | -111.99989 | 1137 ft | 3 kts | 131° |
| 2026-05-05 04:54 | 33.43817 | -111.99986 | 1136 ft | 0 kts | 130° |
| 2026-05-05 04:55 | 33.42744 | -111.77412 | 3953 ft | 239 kts | 329° |